createdAt,value
2019-03-17T00:01:30.724Z,12.64
2019-03-17T00:04:01.891Z,12.76
2019-03-17T00:06:34.385Z,12.64
2019-03-17T00:09:07.678Z,12.76
2019-03-17T00:11:38.950Z,12.84
2019-03-17T00:14:10.123Z,12.62
2019-03-17T00:16:41.416Z,12.80
2019-03-17T00:19:12.670Z,12.67
2019-03-17T00:21:43.908Z,12.45
2019-03-17T00:24:15.048Z,12.65
2019-03-17T00:26:46.319Z,12.64
2019-03-17T00:29:17.538Z,12.71
2019-03-17T00:31:48.825Z,12.63
2019-03-17T00:34:20.004Z,12.31
2019-03-17T00:36:51.079Z,12.16
2019-03-17T00:39:22.298Z,11.91
2019-03-17T00:41:53.569Z,11.70
2019-03-17T00:44:24.789Z,11.53
2019-03-17T00:46:55.916Z,11.38
2019-03-17T00:49:27.016Z,11.11
2019-03-17T00:51:58.959Z,10.95
2019-03-17T00:54:30.057Z,10.82
2019-03-17T00:57:01.170Z,10.72
2019-03-17T00:59:32.283Z,10.63
2019-03-17T01:02:03.520Z,10.54
2019-03-17T01:04:34.695Z,10.46
2019-03-17T01:07:05.940Z,10.36
2019-03-17T01:09:37.066Z,10.21
2019-03-17T01:12:08.289Z,10.15
2019-03-17T01:14:39.377Z,9.98
2019-03-17T01:17:10.730Z,9.98
2019-03-17T01:19:41.891Z,9.96
2019-03-17T01:22:13.119Z,9.87
2019-03-17T01:24:44.420Z,9.77
2019-03-17T01:27:15.537Z,9.55
2019-03-17T01:29:46.809Z,9.61
2019-03-17T01:32:17.961Z,9.64
2019-03-17T01:34:49.210Z,9.55
2019-03-17T01:37:20.440Z,9.57
2019-03-17T01:39:51.618Z,9.56
2019-03-17T01:42:22.852Z,9.50
2019-03-17T01:44:54.024Z,9.38
2019-03-17T01:47:27.665Z,9.55
2019-03-17T01:49:57.997Z,9.42
2019-03-17T01:52:29.174Z,9.48
2019-03-17T01:55:00.385Z,9.50
2019-03-17T01:57:31.599Z,9.39
2019-03-17T02:00:02.777Z,9.33
2019-03-17T02:02:34.600Z,9.47
2019-03-17T02:05:06.914Z,9.42
2019-03-17T02:07:38.052Z,9.39
2019-03-17T02:10:09.526Z,9.22
2019-03-17T02:12:40.750Z,9.48
2019-03-17T02:15:12.292Z,9.33
2019-03-17T02:17:44.646Z,9.22
2019-03-17T02:20:15.923Z,9.07
2019-03-17T02:22:47.202Z,9.18
2019-03-17T02:25:18.446Z,9.14
2019-03-17T02:27:49.513Z,9.10
2019-03-17T02:30:20.705Z,9.06
2019-03-17T02:32:51.927Z,9.06
2019-03-17T02:35:38.007Z,9.08
2019-03-17T02:37:55.967Z,8.97
2019-03-17T02:40:27.128Z,9.07
2019-03-17T02:42:58.591Z,8.94
2019-03-17T02:45:30.085Z,8.82
2019-03-17T02:48:01.268Z,9.10
2019-03-17T02:50:32.443Z,8.85
2019-03-17T02:53:03.894Z,8.93
2019-03-17T02:55:35.083Z,8.79
2019-03-17T02:58:06.283Z,8.79
2019-03-17T03:00:37.572Z,8.87
2019-03-17T03:03:08.664Z,8.82
2019-03-17T03:05:54.104Z,8.80
2019-03-17T03:08:12.693Z,8.84
2019-03-17T03:10:43.868Z,8.72
2019-03-17T03:13:15.073Z,8.67
2019-03-17T03:15:46.339Z,8.76
2019-03-17T03:18:17.543Z,8.86
2019-03-17T03:20:48.818Z,8.70
2019-03-17T03:23:19.971Z,8.67
2019-03-17T03:25:51.130Z,8.68
2019-03-17T03:28:22.267Z,8.61
2019-03-17T03:30:53.438Z,8.55
2019-03-17T03:33:24.510Z,8.56
2019-03-17T03:36:10.060Z,8.74
2019-03-17T03:38:28.629Z,8.67
2019-03-17T03:40:59.856Z,8.61
2019-03-17T03:43:31.069Z,8.60
2019-03-17T03:46:02.298Z,8.58
2019-03-17T03:48:33.509Z,8.54
2019-03-17T03:51:04.756Z,8.67
2019-03-17T03:53:35.888Z,8.56
2019-03-17T03:56:07.134Z,8.57
2019-03-17T03:58:38.379Z,8.34
2019-03-17T04:01:09.631Z,8.40
2019-03-17T04:03:40.861Z,8.51
2019-03-17T04:06:25.851Z,8.39
2019-03-17T04:08:44.998Z,8.32
2019-03-17T04:11:17.143Z,8.40
2019-03-17T04:13:48.383Z,8.27
2019-03-17T04:16:19.547Z,8.30
2019-03-17T04:18:50.612Z,8.37
2019-03-17T04:21:21.770Z,8.34
2019-03-17T04:23:53.005Z,8.01
2019-03-17T04:26:24.257Z,8.22
2019-03-17T04:28:55.424Z,8.23
2019-03-17T04:31:26.683Z,8.20
2019-03-17T04:33:57.876Z,8.07
2019-03-17T04:36:39.586Z,8.13
2019-03-17T04:39:02.049Z,8.33
2019-03-17T04:41:33.487Z,8.12
2019-03-17T04:44:04.627Z,8.38
2019-03-17T04:46:35.891Z,8.29
2019-03-17T04:49:07.131Z,8.21
2019-03-17T04:51:38.305Z,8.06
2019-03-17T04:54:09.469Z,7.98
2019-03-17T04:56:40.801Z,8.04
2019-03-17T04:59:11.872Z,7.88
2019-03-17T05:01:42.960Z,7.88
2019-03-17T05:04:14.035Z,7.99
2019-03-17T05:06:52.491Z,8.06
2019-03-17T05:09:18.110Z,8.02
2019-03-17T05:11:50.443Z,8.09
2019-03-17T05:14:21.662Z,8.24
2019-03-17T05:16:52.823Z,8.16
2019-03-17T05:19:23.984Z,8.42
2019-03-17T05:21:55.382Z,8.47
2019-03-17T05:24:26.508Z,8.52
2019-03-17T05:26:57.741Z,8.53
2019-03-17T05:29:28.974Z,8.63
2019-03-17T05:32:00.130Z,8.77
2019-03-17T05:34:31.400Z,8.56
2019-03-17T05:37:06.550Z,8.70
2019-03-17T05:39:35.409Z,8.80
2019-03-17T05:42:06.658Z,8.86
2019-03-17T05:44:37.720Z,8.99
2019-03-17T05:47:08.820Z,8.93
2019-03-17T05:49:39.980Z,8.90
2019-03-17T05:52:11.374Z,8.98
2019-03-17T05:54:42.479Z,9.19
2019-03-17T05:57:13.764Z,9.06
2019-03-17T05:59:46.026Z,9.17
2019-03-17T06:02:17.131Z,9.33
2019-03-17T06:04:48.479Z,9.31
2019-03-17T06:07:19.585Z,9.27
2019-03-17T06:09:50.737Z,9.39
2019-03-17T06:12:22.930Z,9.48
2019-03-17T06:14:55.185Z,9.58
2019-03-17T06:17:26.280Z,9.47
2019-03-17T06:19:57.528Z,9.74
2019-03-17T06:22:29.911Z,9.67
2019-03-17T06:25:01.081Z,9.78
2019-03-17T06:27:32.312Z,9.87
2019-03-17T06:30:03.547Z,10.03
2019-03-17T06:32:34.857Z,9.83
2019-03-17T06:35:06.644Z,10.01
2019-03-17T06:37:37.984Z,10.13
2019-03-17T06:40:09.867Z,10.15
2019-03-17T06:42:41.114Z,10.48
2019-03-17T06:45:12.655Z,10.56
2019-03-17T06:47:43.995Z,10.75
2019-03-17T06:50:15.500Z,10.84
2019-03-17T06:52:46.699Z,11.13
2019-03-17T06:55:17.973Z,11.24
2019-03-17T06:57:49.223Z,11.15
2019-03-17T07:00:20.511Z,11.30
2019-03-17T07:02:51.841Z,11.32
2019-03-17T07:05:23.007Z,11.42
2019-03-17T07:07:54.135Z,11.47
2019-03-17T07:10:25.267Z,11.64
2019-03-17T07:12:56.443Z,11.51
2019-03-17T07:15:27.831Z,11.52
2019-03-17T07:17:58.949Z,11.73
2019-03-17T07:20:30.131Z,11.89
2019-03-17T07:23:01.459Z,11.96
2019-03-17T07:25:32.653Z,11.97
2019-03-17T07:28:03.908Z,11.93
2019-03-17T07:30:35.062Z,11.88
2019-03-17T07:33:06.340Z,12.11
2019-03-17T07:35:37.502Z,12.21
2019-03-17T07:38:08.689Z,12.54
2019-03-17T07:40:39.958Z,12.62
2019-03-17T07:43:11.217Z,12.83
2019-03-17T07:45:42.431Z,12.81
2019-03-17T07:48:13.562Z,12.75
2019-03-17T07:50:44.741Z,12.97
2019-03-17T07:53:15.892Z,13.24
2019-03-17T07:55:47.095Z,13.37
2019-03-17T07:58:18.380Z,13.42
2019-03-17T08:00:49.799Z,13.59
2019-03-17T08:03:20.991Z,13.63
2019-03-17T08:05:53.217Z,13.86
2019-03-17T08:08:24.448Z,13.84
2019-03-17T08:10:56.062Z,14.04
2019-03-17T08:13:27.242Z,14.30
2019-03-17T08:15:58.677Z,14.31
2019-03-17T08:18:29.884Z,14.58
2019-03-17T08:21:01.065Z,14.59
2019-03-17T08:23:32.241Z,14.95
2019-03-17T08:26:03.453Z,15.12
2019-03-17T08:28:34.554Z,15.22
2019-03-17T08:31:05.765Z,15.44
2019-03-17T08:33:36.962Z,15.54
2019-03-17T08:36:08.135Z,15.37
2019-03-17T08:38:39.321Z,15.55
2019-03-17T08:41:10.469Z,15.67
2019-03-17T08:43:53.436Z,15.88
2019-03-17T08:46:14.356Z,16.40
2019-03-17T08:48:45.569Z,16.63
2019-03-17T08:51:16.816Z,16.48
2019-03-17T08:53:48.060Z,16.77
2019-03-17T08:56:19.238Z,16.90
2019-03-17T08:58:50.841Z,16.59
2019-03-17T09:01:22.101Z,16.69
2019-03-17T09:03:53.210Z,16.98
2019-03-17T09:06:24.526Z,16.97
2019-03-17T09:08:55.644Z,16.90
2019-03-17T09:11:26.884Z,17.26
2019-03-17T09:13:58.109Z,17.30
2019-03-17T09:16:29.445Z,17.25
2019-03-17T09:19:00.556Z,17.41
2019-03-17T09:21:31.632Z,17.20
2019-03-17T09:24:02.890Z,17.38
2019-03-17T09:26:34.036Z,17.77
2019-03-17T09:29:05.283Z,17.97
2019-03-17T09:31:36.544Z,17.59
2019-03-17T09:34:07.777Z,17.85
2019-03-17T09:36:38.947Z,17.70
2019-03-17T09:39:10.196Z,17.73
2019-03-17T09:41:41.431Z,17.68
2019-03-17T09:44:12.654Z,18.04
2019-03-17T09:46:43.820Z,17.87
2019-03-17T09:49:15.135Z,17.88
2019-03-17T09:51:46.298Z,17.82
2019-03-17T09:54:17.521Z,17.79
2019-03-17T09:56:48.721Z,18.18
2019-03-17T09:59:20.202Z,18.41
2019-03-17T10:01:51.382Z,18.21
2019-03-17T10:04:22.827Z,18.33
2019-03-17T10:06:53.971Z,18.55
2019-03-17T10:09:25.274Z,18.58
2019-03-17T10:11:56.450Z,18.84
2019-03-17T10:14:27.726Z,18.86
2019-03-17T10:16:58.888Z,19.18
2019-03-17T10:19:29.992Z,18.95
2019-03-17T10:22:01.154Z,18.82
2019-03-17T10:24:32.640Z,19.18
2019-03-17T10:27:03.963Z,19.13
2019-03-17T10:29:35.316Z,18.76
2019-03-17T10:32:06.554Z,18.86
2019-03-17T10:34:37.752Z,18.89
2019-03-17T10:37:09.098Z,18.89
2019-03-17T10:39:40.199Z,18.92
2019-03-17T10:42:11.470Z,19.09
2019-03-17T10:44:42.728Z,19.06
2019-03-17T10:47:13.891Z,19.18
2019-03-17T10:49:45.002Z,18.89
2019-03-17T10:52:16.115Z,18.85
2019-03-17T10:54:47.335Z,19.15
2019-03-17T10:57:18.411Z,19.29
2019-03-17T10:59:49.527Z,19.29
2019-03-17T11:02:20.781Z,19.41
2019-03-17T11:04:51.961Z,18.95
2019-03-17T11:07:23.167Z,19.10
2019-03-17T11:09:54.377Z,18.81
2019-03-17T11:12:25.535Z,18.98
2019-03-17T11:14:56.674Z,18.69
2019-03-17T11:17:27.937Z,18.86
2019-03-17T11:19:59.128Z,19.29
2019-03-17T11:22:30.404Z,19.30
2019-03-17T11:25:01.563Z,18.92
2019-03-17T11:27:32.800Z,18.72
2019-03-17T11:30:05.080Z,18.74
2019-03-17T11:32:36.322Z,18.70
2019-03-17T11:35:07.660Z,19.07
2019-03-17T11:37:38.773Z,18.94
2019-03-17T11:40:12.118Z,18.75
2019-03-17T11:42:43.452Z,18.71
2019-03-17T11:45:15.022Z,18.78
2019-03-17T11:47:46.443Z,18.81
2019-03-17T11:50:17.704Z,18.91
2019-03-17T11:52:49.350Z,19.06
2019-03-17T11:55:20.795Z,18.95
2019-03-17T11:57:52.144Z,18.52
2019-03-17T12:00:23.498Z,18.49
2019-03-17T12:02:54.748Z,18.37
2019-03-17T12:05:25.933Z,18.36
2019-03-17T12:07:57.190Z,18.45
2019-03-17T12:10:28.355Z,18.37
2019-03-17T12:12:59.517Z,18.41
2019-03-17T12:15:30.834Z,18.72
2019-03-17T12:18:02.005Z,18.90
2019-03-17T12:20:33.288Z,18.98
2019-03-17T12:23:04.531Z,18.66
2019-03-17T12:25:35.792Z,18.43
2019-03-17T12:28:07.038Z,18.36
2019-03-17T12:30:38.289Z,18.55
2019-03-17T12:33:09.383Z,18.65
2019-03-17T12:35:40.627Z,18.57
2019-03-17T12:38:11.712Z,18.89
2019-03-17T12:40:42.827Z,18.68
2019-03-17T12:43:13.921Z,18.68
2019-03-17T12:45:45.106Z,18.96
2019-03-17T12:48:16.244Z,19.16
2019-03-17T12:50:47.516Z,19.11
2019-03-17T12:53:19.007Z,19.19
2019-03-17T12:55:50.354Z,19.35
2019-03-17T12:58:21.430Z,19.37
2019-03-17T13:00:52.572Z,18.87
2019-03-17T13:03:23.668Z,18.94
2019-03-17T13:05:54.983Z,19.00
2019-03-17T13:08:26.081Z,18.94
2019-03-17T13:10:57.272Z,18.68
2019-03-17T13:13:28.582Z,18.54
2019-03-17T13:15:59.675Z,18.67
2019-03-17T13:18:30.852Z,18.70
2019-03-17T13:21:01.995Z,18.73
2019-03-17T13:23:33.072Z,18.54
2019-03-17T13:26:04.320Z,18.90
2019-03-17T13:28:35.475Z,18.87
2019-03-17T13:31:06.678Z,19.19
2019-03-17T13:33:37.756Z,18.85
2019-03-17T13:36:08.861Z,18.79
2019-03-17T13:38:39.942Z,18.98
2019-03-17T13:41:11.161Z,18.90
2019-03-17T13:43:42.241Z,18.84
2019-03-17T13:46:13.431Z,18.85
2019-03-17T13:48:44.491Z,19.06
2019-03-17T13:51:15.681Z,19.15
2019-03-17T13:53:46.864Z,19.28
2019-03-17T13:56:18.202Z,19.30
2019-03-17T13:58:49.355Z,19.37
2019-03-17T14:01:20.540Z,19.02
2019-03-17T14:03:51.784Z,18.89
2019-03-17T14:06:23.116Z,19.15
2019-03-17T14:08:54.462Z,19.14
2019-03-17T14:11:25.784Z,18.90
2019-03-17T14:13:56.953Z,18.76
2019-03-17T14:16:28.143Z,18.79
2019-03-17T14:18:59.464Z,18.57
2019-03-17T14:21:30.674Z,18.55
2019-03-17T14:24:01.837Z,18.82
2019-03-17T14:26:34.126Z,18.57
2019-03-17T14:29:05.893Z,18.34
2019-03-17T14:31:37.142Z,18.10
2019-03-17T14:34:08.386Z,18.12
2019-03-17T14:36:39.584Z,18.04
2019-03-17T14:39:10.945Z,18.00
2019-03-17T14:41:42.137Z,17.73
2019-03-17T14:44:13.240Z,17.74
2019-03-17T14:46:44.502Z,17.51
2019-03-17T14:49:15.684Z,17.50
2019-03-17T14:51:46.936Z,17.46
2019-03-17T14:54:18.103Z,17.19
2019-03-17T14:56:49.331Z,17.34
2019-03-17T14:59:20.426Z,17.33
2019-03-17T15:01:51.527Z,17.24
2019-03-17T15:04:22.692Z,17.16
2019-03-17T15:06:53.878Z,17.19
2019-03-17T15:09:25.128Z,17.15
2019-03-17T15:11:56.385Z,17.33
2019-03-17T15:14:28.748Z,17.13
2019-03-17T15:16:59.934Z,16.93
2019-03-17T15:19:31.020Z,16.88
2019-03-17T15:22:02.193Z,16.60
2019-03-17T15:24:33.273Z,16.65
2019-03-17T15:27:04.536Z,16.52
2019-03-17T15:29:35.679Z,16.68
2019-03-17T15:32:06.933Z,16.61
2019-03-17T15:34:38.013Z,16.50
2019-03-17T15:37:09.255Z,16.26
2019-03-17T15:39:40.416Z,16.20
2019-03-17T15:42:11.645Z,16.15
2019-03-17T15:44:42.734Z,16.35
2019-03-17T15:47:13.824Z,15.90
2019-03-17T15:49:45.061Z,15.90
2019-03-17T15:52:16.364Z,15.89
2019-03-17T15:54:47.539Z,16.13
2019-03-17T15:57:18.773Z,15.88
2019-03-17T15:59:49.974Z,15.71
2019-03-17T16:02:21.153Z,15.72
2019-03-17T16:04:52.320Z,15.62
2019-03-17T16:07:23.427Z,15.71
2019-03-17T16:09:54.688Z,15.42
2019-03-17T16:12:26.927Z,15.38
2019-03-17T16:14:58.095Z,15.65
2019-03-17T16:17:29.316Z,15.34
2019-03-17T16:20:00.535Z,15.44
2019-03-17T16:22:32.565Z,15.55
2019-03-17T16:25:03.726Z,15.25
2019-03-17T16:27:34.945Z,15.37
2019-03-17T16:30:08.955Z,15.19
2019-03-17T16:32:41.080Z,15.30
2019-03-17T16:35:12.575Z,15.25
2019-03-17T16:37:45.212Z,15.19
2019-03-17T16:40:20.320Z,15.36
2019-03-17T16:42:53.750Z,15.40
2019-03-17T16:45:24.511Z,15.08
2019-03-17T16:47:55.836Z,15.03
2019-03-17T16:50:27.452Z,15.10
2019-03-17T16:52:58.719Z,15.15
2019-03-17T16:55:29.875Z,14.33
2019-03-17T16:58:01.133Z,13.79
2019-03-17T17:00:32.434Z,13.66
2019-03-17T17:03:03.653Z,13.40
2019-03-17T17:05:35.158Z,13.06
2019-03-17T17:08:06.712Z,12.78
2019-03-17T17:10:38.954Z,12.40
2019-03-17T17:13:10.384Z,11.97
2019-03-17T17:15:41.555Z,11.81
2019-03-17T17:18:12.809Z,11.23
2019-03-17T17:20:44.112Z,10.94
2019-03-17T17:23:15.286Z,10.53
2019-03-17T17:25:46.475Z,10.12
2019-03-17T17:28:17.540Z,9.86
2019-03-17T17:30:48.638Z,9.56
2019-03-17T17:33:19.962Z,9.38
2019-03-17T17:35:51.130Z,9.13
2019-03-17T17:38:22.231Z,8.89
2019-03-17T17:40:53.486Z,8.40
2019-03-17T17:43:24.741Z,8.54
2019-03-17T17:45:56.056Z,8.36
2019-03-17T17:48:27.236Z,8.30
2019-03-17T17:50:58.468Z,8.13
2019-03-17T17:53:29.741Z,7.78
2019-03-17T17:56:00.970Z,7.94
2019-03-17T17:58:32.159Z,7.92
2019-03-17T18:01:03.468Z,7.60
2019-03-17T18:03:34.668Z,7.44
2019-03-17T18:11:22.798Z,7.24
2019-03-17T18:13:54.443Z,7.08
2019-03-17T18:16:25.813Z,7.02
2019-03-17T18:18:57.329Z,6.88
2019-03-17T18:21:29.610Z,7.07
2019-03-17T18:24:00.844Z,6.96
2019-03-17T18:26:31.924Z,6.95
2019-03-17T18:29:03.027Z,7.02
2019-03-17T18:31:34.260Z,6.95
2019-03-17T18:34:05.519Z,6.94
2019-03-17T18:36:36.700Z,6.85
2019-03-17T18:39:08.797Z,6.55
2019-03-17T18:41:39.945Z,6.71
2019-03-17T18:44:11.228Z,6.51
2019-03-17T18:46:42.293Z,6.23
2019-03-17T18:49:13.389Z,6.58
2019-03-17T18:51:44.511Z,6.42
2019-03-17T18:54:15.800Z,6.30
2019-03-17T18:56:47.049Z,5.98
2019-03-17T18:59:18.686Z,6.44
2019-03-17T19:01:49.796Z,6.37
2019-03-17T19:04:21.012Z,6.25
2019-03-17T19:06:52.230Z,6.69
2019-03-17T19:09:23.364Z,7.02
2019-03-17T19:11:54.492Z,6.50
2019-03-17T19:14:25.719Z,6.76
2019-03-17T19:16:56.881Z,6.94
2019-03-17T19:19:28.126Z,7.09
2019-03-17T19:21:59.214Z,6.80
2019-03-17T19:24:30.402Z,6.83
2019-03-17T19:27:01.623Z,6.90
2019-03-17T19:29:32.909Z,6.77
2019-03-17T19:32:04.057Z,6.98
2019-03-17T19:34:35.167Z,6.90
2019-03-17T19:37:06.395Z,6.98
2019-03-17T19:39:37.598Z,7.00
2019-03-17T19:42:08.826Z,6.80
2019-03-17T19:44:40.117Z,6.64
2019-03-17T19:47:11.378Z,6.77
2019-03-17T19:49:42.519Z,6.61
2019-03-17T19:52:13.709Z,6.55
2019-03-17T19:54:44.832Z,6.43
2019-03-17T19:57:15.992Z,6.37
2019-03-17T19:59:47.220Z,6.66
2019-03-17T20:02:18.588Z,6.71
2019-03-17T20:04:49.765Z,6.69
2019-03-17T20:07:21.011Z,6.58
2019-03-17T20:09:52.221Z,6.78
2019-03-17T20:12:23.368Z,6.64
2019-03-17T20:14:54.661Z,6.65
2019-03-17T20:17:25.755Z,6.58
2019-03-17T20:19:56.840Z,6.39
2019-03-17T20:22:27.997Z,6.37
2019-03-17T20:24:59.102Z,6.50
2019-03-17T20:27:31.003Z,6.78
2019-03-17T20:30:02.409Z,6.35
2019-03-17T20:32:34.642Z,6.68
2019-03-17T20:35:07.792Z,7.07
2019-03-17T20:37:40.078Z,6.87
2019-03-17T20:40:12.228Z,6.58
2019-03-17T20:42:43.455Z,6.43
2019-03-17T20:45:15.301Z,6.62
2019-03-17T20:47:46.582Z,6.45
2019-03-17T20:50:18.110Z,6.88
2019-03-17T20:52:49.475Z,6.16
2019-03-17T20:55:20.708Z,6.53
2019-03-17T20:57:51.848Z,6.39
2019-03-17T21:00:23.106Z,6.31
2019-03-17T21:02:54.395Z,6.57
2019-03-17T21:05:25.572Z,6.59
2019-03-17T21:07:56.637Z,6.36
2019-03-17T21:10:27.805Z,6.55
2019-03-17T21:12:58.921Z,6.51
2019-03-17T21:15:30.243Z,6.67
2019-03-17T21:18:01.352Z,6.61
2019-03-17T21:20:33.765Z,6.37
2019-03-17T21:23:04.923Z,6.55
2019-03-17T21:25:36.102Z,6.27
2019-03-17T21:28:07.345Z,6.54
2019-03-17T21:30:39.391Z,5.86
2019-03-17T21:33:10.665Z,6.19
2019-03-17T21:35:42.669Z,6.38
2019-03-17T21:38:13.918Z,6.65
2019-03-17T21:41:05.686Z,5.82
2019-03-17T21:43:17.898Z,6.04
2019-03-17T21:45:49.003Z,5.71
2019-03-17T21:48:20.140Z,6.14
2019-03-17T21:50:52.585Z,6.15
2019-03-17T21:53:23.869Z,6.48
2019-03-17T21:55:55.217Z,6.65
2019-03-17T21:58:26.393Z,6.40
2019-03-17T22:00:57.617Z,6.04
2019-03-17T22:03:28.822Z,5.78
2019-03-17T22:06:01.343Z,6.23
2019-03-17T22:08:32.478Z,6.47
2019-03-17T22:11:03.695Z,6.28
2019-03-17T22:13:34.865Z,6.14
2019-03-17T22:16:06.155Z,6.22
2019-03-17T22:18:37.323Z,5.73
2019-03-17T22:21:08.602Z,6.18
2019-03-17T22:23:39.996Z,6.19
2019-03-17T22:26:11.337Z,6.15
2019-03-17T22:28:42.517Z,6.21
2019-03-17T22:31:13.684Z,5.92
2019-03-17T22:33:44.774Z,6.21
2019-03-17T22:36:16.019Z,6.54
2019-03-17T22:38:47.178Z,6.71
2019-03-17T22:41:18.567Z,6.58
2019-03-17T22:43:50.248Z,6.28
2019-03-17T22:46:21.553Z,6.70
2019-03-17T22:48:52.772Z,6.45
2019-03-17T22:51:23.999Z,6.14
2019-03-17T22:53:55.097Z,6.40
2019-03-17T22:56:26.181Z,6.16
2019-03-17T22:58:57.614Z,6.29
2019-03-17T23:01:28.893Z,6.20
2019-03-17T23:04:00.039Z,6.14
2019-03-17T23:06:31.454Z,6.07
2019-03-17T23:09:02.627Z,5.38
2019-03-17T23:11:34.302Z,5.51
2019-03-17T23:14:05.561Z,5.25
2019-03-17T23:16:36.734Z,5.30
2019-03-17T23:19:07.981Z,5.07
2019-03-17T23:21:39.314Z,5.70
2019-03-17T23:24:10.585Z,5.43
2019-03-17T23:26:41.907Z,5.72
2019-03-17T23:29:12.988Z,5.47
2019-03-17T23:31:44.237Z,5.65
2019-03-17T23:34:15.542Z,5.39
2019-03-17T23:36:46.662Z,5.36
2019-03-17T23:39:17.713Z,5.48
2019-03-17T23:41:48.900Z,5.65
2019-03-17T23:44:20.081Z,5.67
2019-03-17T23:46:51.164Z,5.16
2019-03-17T23:49:22.491Z,5.30
2019-03-17T23:51:53.700Z,5.60
2019-03-17T23:54:24.875Z,5.79
2019-03-17T23:56:55.968Z,5.51
2019-03-17T23:59:27.100Z,5.61
